Time;durP1;ratioP1;P1;durP2;ratioP2;P2;SDS_P1;SDS_P2;PMS_P1;PMS_P2;Temp;Humidity;BMP_temperature;BMP_pressure;BME280_temperature;BME280_humidity;BME280_pressure;Samples;Min_cycle;Max_cycle;Signal;HPM_P1;HPM_P2
2023/07/18 00:01:00;;;;;;;31.02;15.68;;;11.60;99.30;;;;;;4987369;28;20384;-71
2023/07/18 00:03:28;;;;;;;33.58;15.77;;;11.60;99.30;;;;;;4987996;28;20514;-75
2023/07/18 00:05:54;;;;;;;29.30;16.42;;;11.60;99.30;;;;;;4981716;28;20432;-70
2023/07/18 00:08:19;;;;;;;38.45;16.20;;;11.50;99.30;;;;;;4981646;28;20117;-71
2023/07/18 00:10:45;;;;;;;33.17;15.85;;;11.60;99.50;;;;;;4989634;28;20054;-70
2023/07/18 00:13:11;;;;;;;28.65;16.65;;;11.60;99.50;;;;;;4994293;28;20370;-73
2023/07/18 00:15:36;;;;;;;34.15;16.77;;;11.60;99.50;;;;;;4988368;28;20258;-71
2023/07/18 00:18:02;;;;;;;33.95;17.83;;;11.60;99.40;;;;;;4979388;28;20493;-71
2023/07/18 00:20:29;;;;;;;34.38;18.20;;;11.60;99.60;;;;;;4986667;28;20113;-70
2023/07/18 00:22:55;;;;;;;32.30;17.63;;;11.60;99.50;;;;;;4985538;28;20022;-71
2023/07/18 00:25:21;;;;;;;40.50;18.35;;;11.60;99.50;;;;;;4987407;28;20057;-71
2023/07/18 00:27:49;;;;;;;39.65;18.17;;;11.60;99.60;;;;;;4986913;28;20126;-71
2023/07/18 00:30:17;;;;;;;35.22;17.25;;;11.60;99.60;;;;;;4987087;28;20034;-71
2023/07/18 00:32:44;;;;;;;39.03;17.85;;;11.60;99.60;;;;;;4982296;28;20432;-71
2023/07/18 00:35:11;;;;;;;39.40;18.42;;;11.60;99.60;;;;;;4988219;28;20073;-70
2023/07/18 00:37:38;;;;;;;36.10;18.23;;;11.50;99.60;;;;;;4989781;28;20034;-71
2023/07/18 00:40:10;;;;;;;37.42;19.08;;;11.50;99.60;;;;;;4988558;28;20117;-72
2023/07/18 00:42:37;;;;;;;44.88;18.75;;;11.50;99.60;;;;;;4986661;28;20061;-71
2023/07/18 00:45:05;;;;;;;40.30;18.33;;;11.50;99.60;;;;;;4986396;28;20490;-71
2023/07/18 00:47:31;;;;;;;41.97;18.52;;;11.60;99.60;;;;;;4985422;28;20142;-71
2023/07/18 00:49:57;;;;;;;39.95;18.05;;;11.50;99.60;;;;;;4987007;28;20411;-71
2023/07/18 00:52:22;;;;;;;40.92;18.70;;;11.50;99.70;;;;;;4987510;28;20030;-71
2023/07/18 00:54:48;;;;;;;37.15;18.80;;;11.50;99.70;;;;;;4987332;28;20389;-71
2023/07/18 00:57:14;;;;;;;45.92;19.02;;;11.60;99.70;;;;;;4983642;28;20034;-71
2023/07/18 00:59:40;;;;;;;37.97;19.60;;;11.60;99.80;;;;;;4986597;28;20502;-71
2023/07/18 01:02:06;;;;;;;36.45;18.35;;;11.60;99.80;;;;;;4988349;28;20105;-71
2023/07/18 01:04:32;;;;;;;43.92;18.58;;;11.60;99.80;;;;;;4987846;28;20026;-71
2023/07/18 01:06:59;;;;;;;43.42;18.85;;;11.60;99.70;;;;;;4981665;28;20037;-71
2023/07/18 01:09:25;;;;;;;44.65;19.45;;;11.60;99.80;;;;;;4986384;28;20074;-71
2023/07/18 01:11:50;;;;;;;45.40;19.10;;;11.60;99.80;;;;;;4983691;28;20069;-72
2023/07/18 01:14:16;;;;;;;50.80;19.73;;;11.60;99.80;;;;;;4988098;28;20026;-71
2023/07/18 01:16:41;;;;;;;57.53;20.85;;;11.70;99.90;;;;;;4985793;28;20026;-72
2023/07/18 01:19:07;;;;;;;53.65;20.98;;;11.60;99.80;;;;;;4986942;28;20091;-72
2023/07/18 01:21:33;;;;;;;54.15;19.67;;;11.60;99.80;;;;;;4984978;28;20038;-73
2023/07/18 01:23:58;;;;;;;50.15;19.80;;;11.60;99.90;;;;;;4984757;28;20061;-72
2023/07/18 01:26:24;;;;;;;47.80;20.10;;;11.60;99.90;;;;;;4997282;28;20126;-75
2023/07/18 01:28:49;;;;;;;50.55;20.10;;;11.70;99.90;;;;;;4986384;28;20022;-72
2023/07/18 01:31:15;;;;;;;55.78;19.90;;;11.80;99.90;;;;;;4982231;28;20337;-71
2023/07/18 01:33:43;;;;;;;55.72;20.77;;;11.70;99.90;;;;;;4985781;28;20054;-73
2023/07/18 01:36:09;;;;;;;53.13;20.77;;;11.60;99.90;;;;;;4979172;28;20060;-70
2023/07/18 01:38:35;;;;;;;57.30;20.05;;;11.70;99.90;;;;;;4982574;28;20042;-72
2023/07/18 01:41:01;;;;;;;57.95;20.38;;;11.60;99.90;;;;;;4981890;28;20042;-71
2023/07/18 01:43:27;;;;;;;53.85;19.60;;;11.60;99.90;;;;;;4985011;28;20354;-70
2023/07/18 01:45:57;;;;;;;61.05;21.30;;;11.60;99.90;;;;;;4986310;28;20045;-71
2023/07/18 01:48:23;;;;;;;62.50;21.13;;;11.60;99.90;;;;;;4984968;28;20022;-70
2023/07/18 01:50:48;;;;;;;54.08;19.95;;;11.60;99.90;;;;;;4985576;28;20419;-72
2023/07/18 01:53:13;;;;;;;54.20;20.55;;;11.70;99.90;;;;;;4982269;28;20039;-72
2023/07/18 01:55:39;;;;;;;58.90;20.60;;;11.70;99.90;;;;;;4984786;28;20031;-71
2023/07/18 01:58:05;;;;;;;55.40;20.90;;;11.70;99.90;;;;;;4981926;28;20038;-71
2023/07/18 02:00:31;;;;;;;59.47;21.33;;;11.70;99.90;;;;;;4982683;28;20053;-73
2023/07/18 02:02:57;;;;;;;59.30;22.90;;;11.60;99.90;;;;;;4986439;28;20101;-72
2023/07/18 02:05:24;;;;;;;60.53;21.48;;;11.60;99.90;;;;;;4983289;28;20321;-71
2023/07/18 02:07:50;;;;;;;61.28;22.40;;;11.60;99.90;;;;;;4978446;28;20026;-71
2023/07/18 02:10:19;;;;;;;61.80;22.35;;;11.60;99.90;;;;;;4985438;28;20069;-72
2023/07/18 02:12:46;;;;;;;64.97;21.77;;;11.60;99.90;;;;;;4983809;28;20478;-70
2023/07/18 02:15:15;;;;;;;61.60;22.52;;;11.60;99.90;;;;;;4981249;28;20089;-72
2023/07/18 02:17:41;;;;;;;68.00;22.05;;;11.50;99.90;;;;;;4980510;28;20133;-72
2023/07/18 02:20:09;;;;;;;63.80;22.17;;;11.60;99.90;;;;;;4984273;28;20035;-72
2023/07/18 02:22:35;;;;;;;65.13;21.67;;;11.60;99.90;;;;;;4984452;28;20039;-71
2023/07/18 02:25:05;;;;;;;62.90;22.58;;;11.60;99.90;;;;;;4972854;28;20046;-71
2023/07/18 02:27:35;;;;;;;75.40;22.73;;;11.60;99.90;;;;;;4995039;28;20073;-71
2023/07/18 02:30:01;;;;;;;71.60;23.95;;;11.70;99.90;;;;;;4985352;28;20043;-74
2023/07/18 02:32:30;;;;;;;60.47;23.13;;;11.60;99.90;;;;;;4989178;28;20077;-70
2023/07/18 02:34:56;;;;;;;70.93;23.83;;;11.50;99.90;;;;;;4990832;28;20364;-70
2023/07/18 02:37:23;;;;;;;58.15;22.25;;;11.50;99.90;;;;;;4980282;28;20046;-71
2023/07/18 02:39:48;;;;;;;69.05;23.30;;;11.50;99.90;;;;;;4980412;28;20344;-70
2023/07/18 02:42:14;;;;;;;69.38;22.13;;;11.50;99.90;;;;;;4984105;28;20038;-74
2023/07/18 02:44:40;;;;;;;68.78;22.90;;;11.50;99.90;;;;;;4980305;28;20045;-71
2023/07/18 02:47:05;;;;;;;68.93;23.70;;;11.50;99.90;;;;;;4977911;28;20080;-70
2023/07/18 02:49:31;;;;;;;70.53;22.65;;;11.50;99.90;;;;;;4979671;28;20030;-72
2023/07/18 02:51:57;;;;;;;65.35;22.83;;;11.50;99.90;;;;;;4982653;28;20022;-70
2023/07/18 02:54:22;;;;;;;73.20;23.77;;;11.40;99.90;;;;;;4988488;28;20111;-70
2023/07/18 02:56:48;;;;;;;81.53;24.20;;;11.40;99.90;;;;;;4986945;28;20101;-70
2023/07/18 02:59:14;;;;;;;71.78;22.85;;;11.40;99.90;;;;;;4984729;28;20455;-70
2023/07/18 03:01:39;;;;;;;65.70;23.02;;;11.40;99.90;;;;;;4985420;28;20364;-71
2023/07/18 03:04:05;;;;;;;70.50;22.92;;;11.40;99.90;;;;;;4982601;28;20058;-71
2023/07/18 03:06:30;;;;;;;69.68;23.05;;;11.40;99.90;;;;;;4984121;28;20366;-72
2023/07/18 03:08:56;;;;;;;72.65;23.42;;;11.30;99.90;;;;;;4990806;28;20113;-70
2023/07/18 03:11:22;;;;;;;68.68;22.65;;;11.30;99.90;;;;;;4988574;28;20368;-71
2023/07/18 03:13:47;;;;;;;85.43;23.67;;;11.40;99.90;;;;;;4987909;28;20042;-71
2023/07/18 03:16:13;;;;;;;90.57;24.65;;;11.40;99.90;;;;;;4990432;28;20408;-71
2023/07/18 03:18:38;;;;;;;73.75;24.00;;;11.30;99.90;;;;;;4989156;28;20038;-71
2023/07/18 03:21:04;;;;;;;82.90;24.17;;;11.30;99.90;;;;;;4981878;28;20031;-72
2023/07/18 03:23:29;;;;;;;74.85;24.45;;;11.30;99.90;;;;;;4989092;28;20030;-71
2023/07/18 03:25:55;;;;;;;71.38;24.13;;;11.30;99.90;;;;;;4984442;28;20080;-72
2023/07/18 03:28:21;;;;;;;69.50;23.30;;;11.30;99.90;;;;;;4985763;28;20045;-73
2023/07/18 03:30:47;;;;;;;76.00;25.35;;;11.40;99.90;;;;;;4986900;28;20142;-70
2023/07/18 03:33:12;;;;;;;81.68;25.63;;;11.30;99.90;;;;;;4986206;28;20030;-70
2023/07/18 03:35:38;;;;;;;74.68;24.40;;;11.30;99.90;;;;;;4981687;28;20193;-71
2023/07/18 03:38:04;;;;;;;77.13;24.20;;;11.40;99.90;;;;;;4986044;28;20436;-71
2023/07/18 03:40:30;;;;;;;84.72;25.10;;;11.50;99.90;;;;;;4990888;28;20075;-71
2023/07/18 03:42:56;;;;;;;82.43;25.58;;;11.50;99.90;;;;;;4987223;28;20239;-71
2023/07/18 03:45:21;;;;;;;75.35;24.02;;;11.40;99.90;;;;;;4986730;28;20030;-72
2023/07/18 03:47:47;;;;;;;90.03;26.35;;;11.50;99.90;;;;;;4988383;28;20049;-71
2023/07/18 03:50:14;;;;;;;72.65;24.55;;;11.50;99.90;;;;;;4985665;28;20402;-70
2023/07/18 03:52:40;;;;;;;86.70;24.80;;;11.50;99.90;;;;;;4984926;28;20410;-71
2023/07/18 03:55:06;;;;;;;78.32;25.33;;;11.50;99.90;;;;;;4982550;28;20034;-70
2023/07/18 03:57:32;;;;;;;76.43;24.98;;;11.50;99.90;;;;;;4983186;28;20173;-71
2023/07/18 03:59:58;;;;;;;79.40;25.38;;;11.50;99.90;;;;;;4985301;28;20037;-75
2023/07/18 04:02:24;;;;;;;78.20;24.42;;;11.50;99.90;;;;;;4982416;28;20030;-70
2023/07/18 04:04:50;;;;;;;80.38;24.67;;;11.50;99.90;;;;;;4985733;28;20098;-71
2023/07/18 04:07:15;;;;;;;80.88;24.80;;;11.50;99.90;;;;;;4980220;28;20557;-72
2023/07/18 04:09:41;;;;;;;87.57;26.20;;;11.50;99.90;;;;;;4985888;28;20434;-70
2023/07/18 04:12:07;;;;;;;79.47;26.55;;;11.60;99.90;;;;;;4986194;28;20319;-72
2023/07/18 04:14:35;;;;;;;72.03;25.38;;;11.60;99.90;;;;;;4987208;28;20030;-71
2023/07/18 04:17:01;;;;;;;79.15;25.08;;;11.60;99.90;;;;;;4989080;28;20137;-72
2023/07/18 04:19:26;;;;;;;79.00;25.77;;;11.70;99.90;;;;;;4984805;28;20438;-70
2023/07/18 04:21:51;;;;;;;81.35;27.25;;;11.80;99.90;;;;;;4986848;28;20053;-71
2023/07/18 04:24:17;;;;;;;88.68;28.27;;;11.80;99.90;;;;;;4986144;28;20406;-70
2023/07/18 04:26:42;;;;;;;75.30;26.85;;;11.90;99.90;;;;;;4987400;28;20036;-71
2023/07/18 04:29:08;;;;;;;79.05;26.13;;;11.90;99.90;;;;;;4986705;28;20038;-68
2023/07/18 04:31:33;;;;;;;80.78;25.58;;;11.90;99.90;;;;;;4987040;28;20132;-67
2023/07/18 04:33:59;;;;;;;76.65;26.98;;;12.00;99.90;;;;;;4988772;28;20046;-68
2023/07/18 04:36:25;;;;;;;84.15;26.52;;;12.00;99.90;;;;;;4983529;28;20373;-68
2023/07/18 04:38:50;;;;;;;85.13;26.70;;;12.00;99.90;;;;;;4985619;28;20053;-68
2023/07/18 04:41:16;;;;;;;73.90;25.75;;;12.00;99.90;;;;;;4988954;28;20058;-69
2023/07/18 04:43:41;;;;;;;76.80;26.67;;;12.00;99.90;;;;;;4989083;28;20041;-68
2023/07/18 04:46:08;;;;;;;90.50;26.88;;;12.00;99.90;;;;;;4995055;28;20027;-68
2023/07/18 04:48:33;;;;;;;79.03;25.42;;;12.00;99.90;;;;;;4983137;28;20447;-68
2023/07/18 04:51:00;;;;;;;80.03;25.50;;;12.00;99.90;;;;;;4984123;28;20129;-67
2023/07/18 04:53:28;;;;;;;71.10;26.50;;;12.10;99.90;;;;;;4986577;28;20164;-68
2023/07/18 04:55:57;;;;;;;72.75;25.45;;;12.10;99.90;;;;;;4979840;28;20118;-68
2023/07/18 04:58:27;;;;;;;80.70;26.92;;;12.10;99.90;;;;;;4984602;28;20078;-68
2023/07/18 05:00:54;;;;;;;77.15;28.13;;;12.20;99.90;;;;;;4985674;28;20034;-68
2023/07/18 05:03:21;;;;;;;72.63;25.08;;;12.20;99.90;;;;;;4987680;28;20038;-68
2023/07/18 05:05:46;;;;;;;79.53;26.40;;;12.20;99.90;;;;;;4983288;28;20098;-69
2023/07/18 05:08:12;;;;;;;72.68;25.52;;;12.30;99.90;;;;;;4986107;28;20475;-68
2023/07/18 05:10:37;;;;;;;90.25;28.58;;;12.50;99.90;;;;;;4981435;28;20038;-68
2023/07/18 05:13:03;;;;;;;80.38;27.98;;;12.60;99.90;;;;;;4984150;28;20419;-67
2023/07/18 05:15:28;;;;;;;72.75;26.98;;;12.60;99.90;;;;;;4987290;28;20100;-69
2023/07/18 05:17:54;;;;;;;84.50;27.63;;;12.70;99.80;;;;;;4984139;28;20042;-69
2023/07/18 05:20:20;;;;;;;79.88;26.60;;;12.80;99.80;;;;;;4982872;28;20447;-71
2023/07/18 05:22:45;;;;;;;69.88;25.50;;;12.80;99.70;;;;;;4983176;28;20510;-68
2023/07/18 05:25:12;;;;;;;81.13;26.05;;;12.80;99.70;;;;;;4974127;28;20034;-68
2023/07/18 05:27:39;;;;;;;72.03;26.50;;;12.90;99.70;;;;;;4978773;28;20034;-68
2023/07/18 05:30:09;;;;;;;82.15;26.60;;;12.90;99.70;;;;;;4984016;28;20096;-68
2023/07/18 05:32:35;;;;;;;81.63;27.08;;;13.00;99.70;;;;;;4985865;28;20430;-68
2023/07/18 05:35:01;;;;;;;76.43;26.27;;;13.10;99.70;;;;;;4984712;28;20591;-71
2023/07/18 05:37:28;;;;;;;69.25;25.83;;;13.10;99.60;;;;;;4983231;28;20045;-68
2023/07/18 05:39:54;;;;;;;67.32;25.10;;;13.20;99.50;;;;;;4986696;28;20048;-68
2023/07/18 05:42:19;;;;;;;77.18;25.58;;;13.40;99.70;;;;;;4985030;28;20018;-68
2023/07/18 05:44:45;;;;;;;68.22;26.00;;;13.50;99.50;;;;;;4984147;28;20382;-68
2023/07/18 05:47:10;;;;;;;81.63;26.40;;;13.60;99.50;;;;;;4982916;28;20043;-69
2023/07/18 05:49:36;;;;;;;68.88;24.95;;;13.60;99.30;;;;;;4986638;28;20470;-69
2023/07/18 05:52:02;;;;;;;57.78;24.33;;;13.60;99.30;;;;;;4981302;28;20023;-68
2023/07/18 05:54:30;;;;;;;64.07;25.50;;;13.80;99.30;;;;;;4984630;28;20487;-67
2023/07/18 05:56:57;;;;;;;63.30;24.55;;;13.80;99.20;;;;;;4985005;28;20098;-68
2023/07/18 05:59:22;;;;;;;64.80;23.65;;;13.90;99.10;;;;;;4987442;28;20037;-68
2023/07/18 06:01:48;;;;;;;59.63;24.38;;;14.10;99.20;;;;;;4983762;28;20039;-67
2023/07/18 06:04:15;;;;;;;54.15;22.52;;;14.10;98.90;;;;;;4988123;28;20069;-68
2023/07/18 06:06:41;;;;;;;58.85;23.10;;;13.90;98.30;;;;;;4977792;28;20185;-68
2023/07/18 06:09:07;;;;;;;58.47;22.92;;;14.00;98.70;;;;;;4982447;28;20367;-69
2023/07/18 06:11:33;;;;;;;50.42;23.33;;;14.20;98.80;;;;;;4983799;28;20022;-68
2023/07/18 06:13:59;;;;;;;60.67;24.00;;;14.30;98.70;;;;;;4981713;28;20030;-67
2023/07/18 06:16:25;;;;;;;48.60;21.50;;;14.50;98.60;;;;;;4981067;28;20081;-70
2023/07/18 06:18:50;;;;;;;52.88;21.98;;;14.50;98.10;;;;;;4984634;28;20408;-69
2023/07/18 06:21:16;;;;;;;56.95;22.40;;;14.50;97.80;;;;;;4981567;28;20140;-68
2023/07/18 06:23:41;;;;;;;53.85;21.67;;;14.70;98.20;;;;;;4985595;28;20112;-67
2023/07/18 06:26:07;;;;;;;41.20;19.92;;;14.70;97.70;;;;;;4983007;28;20057;-68
2023/07/18 06:28:32;;;;;;;46.10;20.23;;;14.80;97.50;;;;;;4988325;28;20065;-68
2023/07/18 06:30:58;;;;;;;42.05;19.65;;;14.80;97.20;;;;;;4990257;28;20127;-68
2023/07/18 06:33:24;;;;;;;42.17;18.75;;;14.80;97.00;;;;;;4995057;28;20034;-67
2023/07/18 06:35:53;;;;;;;38.55;17.08;;;14.90;97.10;;;;;;5001373;28;20026;-71
2023/07/18 06:38:19;;;;;;;37.25;16.52;;;15.10;97.00;;;;;;4986849;28;20034;-69
2023/07/18 06:40:49;;;;;;;28.80;14.50;;;15.10;96.80;;;;;;4996992;28;20336;-68
2023/07/18 06:43:16;;;;;;;40.10;14.70;;;15.10;96.20;;;;;;4987823;28;20335;-69
2023/07/18 06:45:45;;;;;;;31.73;14.40;;;15.30;96.40;;;;;;4983753;28;20458;-68
2023/07/18 06:48:11;;;;;;;29.65;13.88;;;15.40;96.50;;;;;;4984686;28;20030;-68
2023/07/18 06:50:38;;;;;;;28.50;12.23;;;15.40;95.40;;;;;;4984966;28;20035;-67
2023/07/18 06:53:03;;;;;;;26.20;10.82;;;15.40;95.50;;;;;;4990837;28;20030;-68
2023/07/18 06:55:29;;;;;;;21.42;10.15;;;15.50;95.40;;;;;;4990306;28;20128;-68
2023/07/18 06:57:55;;;;;;;23.92;9.77;;;15.50;95.60;;;;;;4988292;28;20062;-68
2023/07/18 07:00:21;;;;;;;26.30;9.82;;;15.80;95.90;;;;;;4984124;28;20030;-68
2023/07/18 07:02:46;;;;;;;17.33;8.80;;;15.80;95.10;;;;;;4987716;28;20356;-68
2023/07/18 07:05:12;;;;;;;19.35;8.23;;;15.80;94.20;;;;;;4987094;28;20022;-67
2023/07/18 07:07:37;;;;;;;24.27;8.63;;;16.00;94.80;;;;;;4979104;28;20042;-68
2023/07/18 07:10:03;;;;;;;17.05;7.72;;;15.90;94.40;;;;;;4985123;28;20058;-70
2023/07/18 07:12:32;;;;;;;17.15;7.15;;;16.00;94.00;;;;;;4983818;28;20359;-69
2023/07/18 07:14:57;;;;;;;15.77;7.53;;;16.10;94.40;;;;;;4989730;28;20527;-68
2023/07/18 07:17:23;;;;;;;15.07;7.40;;;16.20;93.80;;;;;;4986077;28;20026;-67
2023/07/18 07:19:49;;;;;;;13.00;6.75;;;16.30;93.80;;;;;;4985495;28;20423;-68
2023/07/18 07:22:14;;;;;;;14.90;6.63;;;16.40;93.60;;;;;;4983719;28;20036;-68
2023/07/18 07:24:40;;;;;;;14.85;6.82;;;16.60;93.70;;;;;;4985545;28;20030;-67
2023/07/18 07:27:07;;;;;;;12.65;6.30;;;16.80;93.00;;;;;;4985825;28;20160;-68
2023/07/18 07:29:32;;;;;;;15.80;6.60;;;16.70;93.10;;;;;;4989865;28;20121;-70
2023/07/18 07:31:58;;;;;;;14.07;6.18;;;16.70;92.70;;;;;;4984885;28;20149;-72
2023/07/18 07:34:23;;;;;;;15.93;5.97;;;16.90;92.80;;;;;;4979171;28;20126;-68
2023/07/18 07:36:49;;;;;;;15.10;5.93;;;16.80;92.10;;;;;;4978266;28;20395;-68
2023/07/18 07:39:15;;;;;;;10.52;5.30;;;17.20;92.40;;;;;;4985375;28;20300;-68
2023/07/18 07:41:40;;;;;;;16.65;5.22;;;17.10;91.00;;;;;;4984315;28;20050;-67
2023/07/18 07:44:06;;;;;;;14.40;5.55;;;17.00;91.40;;;;;;4984834;28;20030;-71
2023/07/18 07:46:32;;;;;;;11.63;5.55;;;16.90;91.40;;;;;;4987374;28;20026;-69
2023/07/18 07:48:58;;;;;;;11.18;5.72;;;16.80;91.40;;;;;;4976362;28;20416;-69
2023/07/18 07:51:23;;;;;;;12.05;5.35;;;17.00;92.00;;;;;;4983213;28;20029;-68
2023/07/18 07:53:49;;;;;;;16.08;5.80;;;17.00;91.60;;;;;;4984384;28;20022;-70
2023/07/18 07:56:14;;;;;;;15.63;5.72;;;17.50;91.30;;;;;;4982862;28;20030;-73
2023/07/18 07:58:40;;;;;;;15.05;5.38;;;17.70;90.40;;;;;;4979802;28;20038;-71
2023/07/18 08:01:05;;;;;;;13.65;4.85;;;18.00;90.30;;;;;;4988553;28;20057;-68
2023/07/18 08:03:30;;;;;;;12.73;4.18;;;18.00;88.00;;;;;;4991815;28;20132;-68
2023/07/18 08:05:58;;;;;;;12.00;4.40;;;18.50;89.30;;;;;;4996395;28;20041;-68
2023/07/18 08:08:24;;;;;;;11.10;4.07;;;18.70;88.30;;;;;;4977504;28;20022;-69
2023/07/18 08:10:49;;;;;;;13.98;4.65;;;19.00;87.20;;;;;;4980953;28;20022;-71
2023/07/18 08:13:16;;;;;;;12.55;4.50;;;19.00;86.20;;;;;;4988145;28;20408;-71
2023/07/18 08:15:42;;;;;;;11.02;3.60;;;19.00;85.50;;;;;;4987817;28;20106;-73
2023/07/18 08:18:07;;;;;;;10.98;3.70;;;18.70;86.00;;;;;;4985340;28;20149;-67
2023/07/18 08:20:33;;;;;;;10.32;3.67;;;19.00;85.90;;;;;;4984582;28;20125;-69
2023/07/18 08:22:59;;;;;;;12.02;3.78;;;19.00;83.10;;;;;;4981952;28;20042;-69
2023/07/18 08:25:25;;;;;;;9.82;3.42;;;19.10;84.50;;;;;;4979539;28;20481;-69
2023/07/18 08:27:51;;;;;;;12.95;3.55;;;18.70;85.20;;;;;;4980980;28;20489;-67
2023/07/18 08:30:17;;;;;;;7.80;2.65;;;18.50;85.20;;;;;;4983941;28;22361;-68
2023/07/18 08:32:42;;;;;;;11.63;3.40;;;18.70;85.00;;;;;;4985566;28;20081;-67
2023/07/18 08:35:08;;;;;;;11.82;3.30;;;18.70;84.10;;;;;;4985722;28;20109;-70
2023/07/18 08:37:34;;;;;;;11.13;3.42;;;18.50;84.90;;;;;;4981785;28;20148;-70
2023/07/18 08:39:59;;;;;;;11.35;3.45;;;18.80;84.60;;;;;;4979048;28;20424;-70
2023/07/18 08:42:26;;;;;;;9.30;2.88;;;19.00;84.10;;;;;;4976988;28;20329;-68
2023/07/18 08:44:57;;;;;;;11.95;2.60;;;19.40;82.70;;;;;;4982514;28;20030;-67
2023/07/18 08:47:25;;;;;;;9.45;2.70;;;19.90;81.20;;;;;;4982372;28;20041;-67
2023/07/18 08:49:51;;;;;;;7.00;2.17;;;20.00;79.80;;;;;;4986842;28;20046;-70
2023/07/18 08:52:16;;;;;;;9.07;1.95;;;19.70;79.30;;;;;;4993148;28;20573;-68
2023/07/18 08:54:42;;;;;;;7.32;2.10;;;19.50;80.00;;;;;;4983020;28;20110;-69
2023/07/18 08:57:08;;;;;;;7.03;2.08;;;19.70;77.70;;;;;;4986278;28;20073;-68
2023/07/18 08:59:34;;;;;;;9.65;2.38;;;19.70;78.70;;;;;;4987515;28;20038;-68
2023/07/18 09:02:00;;;;;;;10.10;2.40;;;19.70;80.40;;;;;;4980332;28;20157;-71
2023/07/18 09:04:25;;;;;;;10.18;2.15;;;19.80;78.30;;;;;;4983402;28;20022;-68
2023/07/18 09:07:02;;;;;;;7.30;1.80;;;19.60;77.10;;;;;;4985469;28;20489;-69
2023/07/18 09:09:28;;;;;;;11.48;2.30;;;19.60;78.50;;;;;;4982011;28;20057;-68
2023/07/18 09:11:58;;;;;;;7.80;2.00;;;19.90;78.30;;;;;;4991134;28;20034;-68
2023/07/18 09:14:26;;;;;;;7.32;2.03;;;20.00;79.20;;;;;;4989785;28;20104;-69
2023/07/18 09:16:54;;;;;;;9.52;2.40;;;19.60;77.10;;;;;;4981802;28;20532;-68
2023/07/18 09:19:33;;;;;;;6.60;2.03;;;19.80;75.90;;;;;;4988291;28;20089;-68
2023/07/18 09:21:59;;;;;;;7.55;1.98;;;20.00;75.30;;;;;;4985669;28;20069;-68
2023/07/18 09:24:30;;;;;;;5.57;1.50;;;20.00;75.90;;;;;;4982612;28;20424;-68
2023/07/18 09:26:56;;;;;;;5.43;1.58;;;20.70;75.50;;;;;;4972681;28;20026;-68
2023/07/18 09:29:22;;;;;;;5.95;1.60;;;21.00;70.50;;;;;;4977454;28;20046;-67
2023/07/18 09:31:49;;;;;;;8.20;1.85;;;21.50;72.60;;;;;;4977601;28;20058;-69
2023/07/18 09:34:16;;;;;;;4.13;1.65;;;20.50;72.60;;;;;;4986850;28;20105;-72
2023/07/18 09:36:55;;;;;;;5.22;1.95;;;20.20;73.00;;;;;;4978250;28;20161;-69
2023/07/18 09:39:22;;;;;;;6.43;1.40;;;20.20;74.30;;;;;;4985349;28;20137;-68
2023/07/18 09:41:48;;;;;;;7.25;1.83;;;20.40;73.80;;;;;;4985675;28;20045;-68
2023/07/18 09:44:15;;;;;;;7.68;1.77;;;20.60;71.90;;;;;;4981390;28;20022;-69
2023/07/18 09:46:42;;;;;;;4.15;1.63;;;21.10;71.40;;;;;;4985981;28;20053;-68
2023/07/18 09:49:07;;;;;;;7.95;2.00;;;21.30;70.40;;;;;;4986222;28;20077;-70
2023/07/18 09:51:34;;;;;;;7.22;1.67;;;21.30;70.60;;;;;;4979666;28;20073;-69
2023/07/18 09:54:03;;;;;;;7.03;2.00;;;21.70;70.80;;;;;;4984165;28;20355;-69
2023/07/18 09:56:38;;;;;;;7.43;1.90;;;21.40;68.90;;;;;;4988606;28;20085;-68
2023/07/18 09:59:07;;;;;;;6.32;2.17;;;20.80;71.20;;;;;;4986708;28;20038;-68
2023/07/18 10:01:32;;;;;;;5.13;1.45;;;20.70;71.30;;;;;;4986032;28;20034;-68
2023/07/18 10:03:58;;;;;;;5.35;1.52;;;20.60;73.20;;;;;;4991934;28;20413;-67
2023/07/18 10:06:25;;;;;;;6.35;1.88;;;21.00;71.50;;;;;;4987566;28;20033;-69
2023/07/18 10:08:53;;;;;;;5.72;1.65;;;21.40;70.80;;;;;;4984622;28;20088;-69
2023/07/18 10:11:18;;;;;;;7.00;1.65;;;21.80;70.10;;;;;;4988922;28;20034;-70
2023/07/18 10:14:07;;;;;;;7.35;1.77;;;22.30;67.60;;;;;;4987609;28;20125;-68
2023/07/18 10:16:40;;;;;;;4.20;1.55;;;22.20;68.40;;;;;;4981544;28;20097;-68
2023/07/18 10:19:18;;;;;;;7.78;1.80;;;22.20;67.10;;;;;;4985179;28;20036;-69
2023/07/18 10:21:46;;;;;;;7.75;1.58;;;22.10;67.40;;;;;;4984921;28;20498;-69
2023/07/18 10:24:21;;;;;;;6.18;1.27;;;22.20;67.10;;;;;;4987925;28;20026;-70
2023/07/18 10:26:58;;;;;;;5.40;1.23;;;22.40;66.90;;;;;;4990863;28;20069;-68
2023/07/18 10:29:28;;;;;;;5.57;1.23;;;21.90;65.70;;;;;;4989315;28;20035;-68
2023/07/18 10:31:54;;;;;;;3.75;1.15;;;22.50;64.90;;;;;;4990577;28;20057;-68
2023/07/18 10:34:19;;;;;;;5.78;1.38;;;23.00;64.90;;;;;;4982957;28;20519;-69
2023/07/18 10:36:54;;;;;;;6.63;1.45;;;22.80;62.40;;;;;;4979063;28;20431;-68
2023/07/18 10:39:34;;;;;;;4.32;1.10;;;22.10;64.30;;;;;;4986021;28;20046;-69
2023/07/18 10:42:05;;;;;;;4.93;1.00;;;21.80;64.90;;;;;;4989357;28;20129;-69
2023/07/18 10:44:31;;;;;;;4.32;1.00;;;22.00;62.30;;;;;;4991165;28;20144;-70
2023/07/18 10:46:56;;;;;;;5.78;1.70;;;22.10;59.90;;;;;;4985046;28;20133;-69
2023/07/18 10:49:29;;;;;;;4.90;1.13;;;22.70;60.50;;;;;;4983600;28;20049;-68
2023/07/18 10:51:54;;;;;;;5.20;1.30;;;22.10;59.80;;;;;;4986057;28;20316;-68
2023/07/18 10:54:20;;;;;;;7.28;1.00;;;22.00;61.10;;;;;;4986672;28;20027;-68
2023/07/18 10:56:48;;;;;;;5.00;1.33;;;22.50;61.70;;;;;;4984647;28;20030;-66
2023/07/18 10:59:14;;;;;;;4.45;1.25;;;23.20;60.60;;;;;;4987783;28;20105;-69
2023/07/18 11:01:40;;;;;;;5.45;1.30;;;23.80;59.10;;;;;;4989174;28;20216;-69
2023/07/18 11:04:07;;;;;;;7.05;1.30;;;23.30;56.30;;;;;;4989857;28;20038;-69
2023/07/18 11:06:33;;;;;;;3.78;0.98;;;23.20;58.10;;;;;;4978226;28;20058;-66
2023/07/18 11:08:58;;;;;;;4.35;1.30;;;23.40;57.90;;;;;;4984127;28;20109;-66
2023/07/18 11:11:24;;;;;;;4.30;1.05;;;23.10;58.30;;;;;;4988376;28;20109;-66
2023/07/18 11:13:49;;;;;;;6.50;1.23;;;23.50;58.40;;;;;;4986593;28;20109;-68
2023/07/18 11:16:16;;;;;;;3.58;1.30;;;24.10;57.00;;;;;;4980254;28;20434;-65
2023/07/18 11:18:44;;;;;;;3.95;1.00;;;23.90;55.00;;;;;;4991557;28;20062;-70
2023/07/18 11:21:10;;;;;;;5.90;1.33;;;24.00;57.20;;;;;;4982038;28;20053;-68
2023/07/18 11:23:37;;;;;;;4.55;1.50;;;24.00;57.60;;;;;;4992655;28;20022;-68
2023/07/18 11:26:12;;;;;;;5.55;1.30;;;23.80;55.70;;;;;;4993059;28;20098;-67
2023/07/18 11:28:39;;;;;;;4.40;1.08;;;24.00;57.60;;;;;;4988510;28;20089;-68
2023/07/18 11:31:05;;;;;;;4.38;1.27;;;24.40;57.30;;;;;;4987230;28;20093;-68
2023/07/18 11:33:34;;;;;;;8.75;1.33;;;24.10;56.40;;;;;;4989759;28;20126;-66
2023/07/18 11:36:00;;;;;;;3.95;1.20;;;24.10;56.00;;;;;;4985489;28;20015;-67
2023/07/18 11:38:29;;;;;;;5.90;1.30;;;24.20;55.10;;;;;;4986041;28;20046;-68
2023/07/18 11:40:55;;;;;;;2.30;0.73;;;24.20;54.90;;;;;;4989145;28;20451;-69
2023/07/18 11:43:20;;;;;;;3.47;1.02;;;24.80;54.70;;;;;;4985225;28;20037;-68
2023/07/18 11:45:46;;;;;;;4.63;1.13;;;25.10;54.20;;;;;;4984308;28;20054;-65
2023/07/18 11:48:15;;;;;;;4.43;1.30;;;25.30;50.50;;;;;;4988387;28;20045;-66
2023/07/18 11:50:45;;;;;;;4.30;1.08;;;25.50;56.10;;;;;;4981594;28;20022;-66
2023/07/18 11:53:11;;;;;;;2.35;0.88;;;25.20;51.40;;;;;;4979306;28;20364;-66
2023/07/18 11:55:37;;;;;;;3.60;0.90;;;25.20;49.30;;;;;;4990498;28;20473;-67
2023/07/18 11:58:07;;;;;;;2.42;0.90;;;25.10;49.90;;;;;;4977443;28;20121;-66
2023/07/18 12:00:35;;;;;;;2.72;0.82;;;25.50;50.80;;;;;;4987117;28;20069;-67
2023/07/18 12:03:00;;;;;;;3.85;0.95;;;25.10;51.30;;;;;;4989722;28;20053;-67
2023/07/18 12:05:26;;;;;;;3.60;0.70;;;24.80;51.80;;;;;;4982648;28;20022;-65
2023/07/18 12:07:51;;;;;;;2.85;0.95;;;25.00;52.50;;;;;;4984347;28;20114;-65
2023/07/18 12:10:18;;;;;;;2.65;0.85;;;25.00;52.10;;;;;;4986411;28;20035;-68
2023/07/18 12:12:44;;;;;;;4.72;1.10;;;25.60;50.10;;;;;;4989928;28;20033;-71
2023/07/18 12:15:10;;;;;;;3.50;1.00;;;26.00;51.00;;;;;;4984152;28;20145;-69
2023/07/18 12:17:38;;;;;;;3.75;0.93;;;25.90;49.20;;;;;;4987165;28;20027;-65
2023/07/18 12:20:04;;;;;;;4.45;0.95;;;26.30;47.80;;;;;;4987125;28;20249;-66
2023/07/18 12:22:31;;;;;;;3.47;1.30;;;26.70;48.90;;;;;;4982892;28;20023;-65
2023/07/18 12:24:56;;;;;;;3.95;0.93;;;26.80;48.20;;;;;;4994840;28;20034;-66
2023/07/18 12:27:22;;;;;;;5.50;0.80;;;26.60;46.40;;;;;;4990299;28;20030;-66
2023/07/18 12:29:47;;;;;;;3.70;0.93;;;26.70;47.30;;;;;;4988388;28;20049;-66